createdAt,value
2019-02-14T00:02:47.698Z,21.7
2019-02-14T00:05:53.763Z,21.6
2019-02-14T00:08:59.654Z,21.6
2019-02-14T00:12:05.679Z,21.6
2019-02-14T00:15:11.642Z,21.6
2019-02-14T00:18:17.707Z,21.6
2019-02-14T00:21:23.694Z,21.6
2019-02-14T00:24:29.609Z,21.6
2019-02-14T00:27:35.571Z,21.6
2019-02-14T00:30:41.623Z,21.5
2019-02-14T00:33:47.617Z,21.5
2019-02-14T00:36:53.587Z,21.5
2019-02-14T00:39:59.527Z,21.5
2019-02-14T00:43:05.691Z,21.5
2019-02-14T00:46:11.601Z,21.5
2019-02-14T00:49:17.682Z,21.4
2019-02-14T00:52:23.667Z,21.5
2019-02-14T00:55:29.685Z,21.4
2019-02-14T00:58:35.673Z,21.4
2019-02-14T01:01:41.585Z,21.4
2019-02-14T01:04:47.512Z,21.4
2019-02-14T01:07:53.425Z,21.4
2019-02-14T01:10:59.444Z,21.3
2019-02-14T01:14:05.368Z,21.3
2019-02-14T01:17:11.332Z,21.3
2019-02-14T01:20:17.300Z,21.3
2019-02-14T01:23:23.334Z,21.3
2019-02-14T01:26:29.314Z,21.3
2019-02-14T01:29:35.284Z,21.3
2019-02-14T01:32:41.335Z,21.3
2019-02-14T01:35:47.299Z,21.4
2019-02-14T01:38:53.273Z,21.3
2019-02-14T01:41:59.240Z,21.4
2019-02-14T01:45:05.209Z,21.4
2019-02-14T01:48:11.181Z,21.4
2019-02-14T01:51:17.092Z,21.3
2019-02-14T01:54:23.058Z,21.4
2019-02-14T01:57:29.064Z,21.4
2019-02-14T02:00:34.916Z,21.4
2019-02-14T02:03:40.953Z,21.4
2019-02-14T02:06:46.900Z,21.4
2019-02-14T02:09:52.805Z,21.4
2019-02-14T02:12:58.849Z,21.4
2019-02-14T02:16:04.774Z,21.5
2019-02-14T02:19:10.710Z,21.5
2019-02-14T02:22:16.686Z,21.5
2019-02-14T02:25:22.640Z,21.6
2019-02-14T02:28:28.624Z,21.6
2019-02-14T02:31:37.642Z,21.6
2019-02-14T02:34:43.641Z,21.6
2019-02-14T02:37:49.585Z,21.6
2019-02-14T02:40:58.206Z,21.7
2019-02-14T02:44:04.162Z,21.7
2019-02-14T02:47:12.105Z,21.7
2019-02-14T02:50:17.957Z,21.8
2019-02-14T02:53:23.991Z,21.8
2019-02-14T02:56:29.874Z,21.8
2019-02-14T02:59:35.901Z,21.8
2019-02-14T03:02:41.849Z,21.9
2019-02-14T03:05:47.934Z,21.9
2019-02-14T03:08:53.877Z,21.9
2019-02-14T03:11:59.860Z,21.9
2019-02-14T03:15:05.793Z,21.9
2019-02-14T03:18:11.770Z,22
2019-02-14T03:21:17.802Z,22
2019-02-14T03:24:23.770Z,22
2019-02-14T03:27:29.732Z,22
2019-02-14T03:30:35.687Z,22
2019-02-14T03:33:41.614Z,22
2019-02-14T03:36:47.570Z,22
2019-02-14T03:39:53.438Z,22
2019-02-14T03:42:59.446Z,22
2019-02-14T03:46:05.404Z,22
2019-02-14T03:49:11.365Z,21.9
2019-02-14T03:52:17.449Z,21.9
2019-02-14T03:55:23.464Z,21.9
2019-02-14T03:58:29.451Z,21.9
2019-02-14T04:01:35.399Z,21.9
2019-02-14T04:04:41.349Z,21.9
2019-02-14T04:07:47.333Z,21.9
2019-02-14T04:10:53.280Z,21.9
2019-02-14T04:13:59.222Z,22
2019-02-14T04:17:07.835Z,22
2019-02-14T04:20:13.837Z,22
2019-02-14T04:23:19.774Z,22
2019-02-14T04:26:25.724Z,22
2019-02-14T04:29:31.689Z,22
2019-02-14T04:32:37.597Z,22
2019-02-14T04:35:46.441Z,22
2019-02-14T04:38:52.380Z,22
2019-02-14T04:41:58.309Z,22
2019-02-14T04:45:06.990Z,22
2019-02-14T04:48:13.070Z,22
2019-02-14T04:51:18.985Z,22
2019-02-14T04:54:24.910Z,21.9
2019-02-14T04:57:30.901Z,21.9
2019-02-14T05:00:36.777Z,21.9
2019-02-14T05:03:44.286Z,21.9
2019-02-14T05:06:50.268Z,21.9
2019-02-14T05:09:56.234Z,21.8
2019-02-14T05:13:02.278Z,21.8
2019-02-14T05:16:08.200Z,21.8
2019-02-14T05:19:14.132Z,21.8
2019-02-14T05:22:20.034Z,21.7
2019-02-14T05:25:25.974Z,21.7
2019-02-14T05:28:31.984Z,21.7
2019-02-14T05:31:37.899Z,21.7
2019-02-14T05:34:43.945Z,21.6
2019-02-14T05:37:49.866Z,21.6
2019-02-14T05:40:56.843Z,21.6
2019-02-14T05:44:02.969Z,21.5
2019-02-14T05:47:08.819Z,21.6
2019-02-14T05:50:14.747Z,21.6
2019-02-14T05:53:20.653Z,21.5
2019-02-14T05:56:26.733Z,21.6
2019-02-14T05:59:32.653Z,21.6
2019-02-14T06:02:38.587Z,21.6
2019-02-14T06:05:44.669Z,21.5
2019-02-14T06:08:50.536Z,21.6
2019-02-14T06:11:56.572Z,21.7
2019-02-14T06:15:02.503Z,21.7
2019-02-14T06:18:08.561Z,21.7
2019-02-14T06:21:14.488Z,21.7
2019-02-14T06:24:20.560Z,21.8
2019-02-14T06:27:26.496Z,21.8
2019-02-14T06:30:32.437Z,21.9
2019-02-14T06:33:38.634Z,22.1
2019-02-14T06:36:46.174Z,22.1
2019-02-14T06:39:52.549Z,22.3
2019-02-14T06:42:58.465Z,22.3
2019-02-14T06:46:04.386Z,22.4
2019-02-14T06:49:10.371Z,22.4
2019-02-14T06:52:16.426Z,22.5
2019-02-14T06:55:22.392Z,22.7
2019-02-14T06:58:28.222Z,22.8
2019-02-14T07:01:34.179Z,22.8
2019-02-14T07:04:40.159Z,22.9
2019-02-14T07:07:46.098Z,23
2019-02-14T07:10:52.003Z,23.1
2019-02-14T07:13:59.442Z,23.2
2019-02-14T07:17:05.430Z,23.4
2019-02-14T07:20:11.392Z,23.5
2019-02-14T07:23:17.335Z,23.5
2019-02-14T07:26:23.378Z,23.5
2019-02-14T07:32:35.715Z,23.7
2019-02-14T07:35:41.710Z,23.7
2019-02-14T07:38:47.769Z,23.8
2019-02-14T07:41:53.731Z,23.8
2019-02-14T07:44:59.579Z,23.9
2019-02-14T07:48:05.710Z,23.9
2019-02-14T07:51:11.799Z,24
2019-02-14T07:54:17.731Z,24
2019-02-14T07:57:23.707Z,24.1
2019-02-14T08:00:29.732Z,24.1
2019-02-14T08:03:35.682Z,24.2
2019-02-14T08:06:43.623Z,24.2
2019-02-14T08:09:49.636Z,24.3
2019-02-14T08:12:55.588Z,24.3
2019-02-14T08:16:01.636Z,24.4
2019-02-14T08:19:08.662Z,24.4
2019-02-14T08:22:14.829Z,24.5
2019-02-14T08:25:21.818Z,24.5
2019-02-14T08:28:27.866Z,24.5
2019-02-14T08:31:33.896Z,24.6
2019-02-14T08:34:39.845Z,24.6
2019-02-14T08:37:46.328Z,24.7
2019-02-14T08:40:52.479Z,24.7
2019-02-14T08:44:00.278Z,24.7
2019-02-14T08:47:06.243Z,24.7
2019-02-14T08:50:12.320Z,24.8
2019-02-14T08:53:18.274Z,24.8
2019-02-14T08:56:24.257Z,24.9
2019-02-14T08:59:31.576Z,25
2019-02-14T09:02:39.710Z,25
2019-02-14T09:05:45.692Z,25
2019-02-14T09:08:53.811Z,25.1
2019-02-14T09:12:00.019Z,25.1
2019-02-14T09:15:06.086Z,25.1
2019-02-14T09:18:12.077Z,25.1
2019-02-14T09:21:18.056Z,25.2
2019-02-14T09:24:24.011Z,25.2
2019-02-14T09:27:29.993Z,25.2
2019-02-14T09:30:35.943Z,25.2
2019-02-14T09:33:41.856Z,25.2
2019-02-14T09:36:47.978Z,25.3
2019-02-14T09:39:56.449Z,25.3
2019-02-14T09:43:02.365Z,25.4
2019-02-14T09:46:08.509Z,25.4
2019-02-14T09:49:14.678Z,25.4
2019-02-14T09:52:20.643Z,25.4
2019-02-14T09:55:26.949Z,25.4
2019-02-14T09:58:32.887Z,25.5
2019-02-14T10:01:38.900Z,25.5
2019-02-14T10:04:44.836Z,25.5
2019-02-14T10:07:50.919Z,25.5
2019-02-14T10:10:56.987Z,25.5
2019-02-14T10:14:03.681Z,25.5
2019-02-14T10:17:12.574Z,25.4
2019-02-14T10:20:27.437Z,25.5
2019-02-14T10:23:33.390Z,25.5
2019-02-14T10:26:39.336Z,25.6
2019-02-14T10:29:45.352Z,25.7
2019-02-14T10:32:51.310Z,25.7
2019-02-14T10:35:57.421Z,25.7
2019-02-14T10:39:05.632Z,25.7
2019-02-14T10:42:11.679Z,25.7
2019-02-14T10:45:17.686Z,25.7
2019-02-14T10:48:23.749Z,25.7
2019-02-14T10:51:29.699Z,25.7
2019-02-14T10:54:35.658Z,25.7
2019-02-14T10:57:41.776Z,25.7
2019-02-14T11:00:47.929Z,25.7
2019-02-14T11:03:53.797Z,25.8
2019-02-14T11:06:59.731Z,25.7
2019-02-14T11:10:05.675Z,25.7
2019-02-14T11:13:11.764Z,25.7
2019-02-14T11:16:17.799Z,25.7
2019-02-14T11:19:23.760Z,25.8
2019-02-14T11:22:29.717Z,25.8
2019-02-14T11:25:35.978Z,25.8
2019-02-14T11:28:42.010Z,25.7
2019-02-14T11:31:48.100Z,25.8
2019-02-14T11:34:54.166Z,25.8
2019-02-14T11:38:00.077Z,25.8
2019-02-14T11:41:07.231Z,25.8
2019-02-14T11:44:13.280Z,25.8
2019-02-14T11:47:19.181Z,25.8
2019-02-14T11:50:25.120Z,25.9
2019-02-14T11:53:31.418Z,26
2019-02-14T11:56:37.530Z,26
2019-02-14T11:59:44.481Z,26
2019-02-14T12:02:55.321Z,26.1
2019-02-14T12:06:01.970Z,26.1
2019-02-14T12:09:08.020Z,26.1
2019-02-14T12:12:13.997Z,26.1
2019-02-14T12:15:24.181Z,26.1
2019-02-14T12:18:32.240Z,26.1
2019-02-14T12:21:38.324Z,26.1
2019-02-14T12:24:47.522Z,26.1
2019-02-14T12:27:53.649Z,26.1
2019-02-14T12:30:59.559Z,26.1
2019-02-14T12:34:05.700Z,26.1
2019-02-14T12:37:12.627Z,26.2
2019-02-14T12:40:20.693Z,26.2
2019-02-14T12:43:28.199Z,26.2
2019-02-14T12:46:37.875Z,26.2
2019-02-14T12:49:44.033Z,26.3
2019-02-14T12:52:49.958Z,26.3
2019-02-14T12:55:56.850Z,26.2
2019-02-14T12:59:03.038Z,26.3
2019-02-14T13:02:09.119Z,26.3
2019-02-14T13:05:15.192Z,26.3
2019-02-14T13:08:21.243Z,26.2
2019-02-14T13:11:27.314Z,26.2
2019-02-14T13:14:33.254Z,26.2
2019-02-14T13:17:39.210Z,26.2
2019-02-14T13:20:45.374Z,26.2
2019-02-14T13:23:51.403Z,26.2
2019-02-14T13:26:57.499Z,26.2
2019-02-14T13:30:04.425Z,26.2
2019-02-14T13:33:10.506Z,26.2
2019-02-14T13:36:16.451Z,26.2
2019-02-14T13:39:29.451Z,26.2
2019-02-14T13:42:38.150Z,26.2
2019-02-14T13:45:44.122Z,26.3
2019-02-14T13:48:50.192Z,26.3
2019-02-14T13:51:56.200Z,26.2
2019-02-14T13:55:02.475Z,26.2
2019-02-14T13:58:08.537Z,26.2
2019-02-14T14:01:14.524Z,26.2
2019-02-14T14:04:20.516Z,26.2
2019-02-14T14:07:26.405Z,26.2
2019-02-14T14:10:42.711Z,26.3
2019-02-14T14:13:49.813Z,26.3
2019-02-14T14:16:56.017Z,26.3
2019-02-14T14:20:02.926Z,26.2
2019-02-14T14:23:10.003Z,26.2
2019-02-14T14:26:16.026Z,26.1
2019-02-14T14:29:22.043Z,26.1
2019-02-14T14:32:28.139Z,26.1
2019-02-14T14:35:36.926Z,26.1
2019-02-14T14:38:43.068Z,26
2019-02-14T14:41:48.999Z,26
2019-02-14T14:44:55.058Z,26
2019-02-14T14:48:01.077Z,26
2019-02-14T14:51:07.115Z,25.9
2019-02-14T14:54:13.061Z,25.9
2019-02-14T14:57:19.047Z,25.9
2019-02-14T15:00:24.964Z,25.9
2019-02-14T15:03:31.978Z,25.8
2019-02-14T15:06:39.028Z,25.9
2019-02-14T15:09:46.869Z,25.8
2019-02-14T15:13:02.818Z,25.8
2019-02-14T15:16:09.108Z,25.7
2019-02-14T15:19:15.495Z,25.8
2019-02-14T15:22:21.377Z,25.7
2019-02-14T15:25:27.376Z,25.7
2019-02-14T15:28:33.341Z,25.7
2019-02-14T15:31:41.218Z,25.7
2019-02-14T15:34:47.208Z,25.7
2019-02-14T15:37:53.273Z,25.7
2019-02-14T15:40:59.301Z,25.6
2019-02-14T15:44:05.450Z,25.6
2019-02-14T15:47:11.429Z,25.6
2019-02-14T15:50:17.423Z,25.6
2019-02-14T15:53:23.327Z,25.6
2019-02-14T15:56:29.783Z,25.5
2019-02-14T15:59:40.968Z,25.5
2019-02-14T16:02:52.466Z,25.5
2019-02-14T16:05:58.613Z,25.5
2019-02-14T16:09:09.729Z,25.5
2019-02-14T16:12:21.776Z,25.5
2019-02-14T16:15:30.921Z,25.4
2019-02-14T16:18:39.354Z,25.4
2019-02-14T16:21:51.509Z,25.4
2019-02-14T16:25:02.578Z,25.4
2019-02-14T16:28:13.528Z,25.4
2019-02-14T16:31:19.751Z,25.3
2019-02-14T16:34:25.722Z,25.3
2019-02-14T16:37:31.683Z,25.3
2019-02-14T16:40:38.721Z,25.3
2019-02-14T16:43:44.873Z,25.3
2019-02-14T16:46:50.734Z,25.3
2019-02-14T16:49:56.663Z,25.2
2019-02-14T16:53:02.705Z,25.2
2019-02-14T16:56:08.625Z,25.2
2019-02-14T16:59:14.575Z,25.1
2019-02-14T17:02:20.560Z,25.1
2019-02-14T17:05:26.496Z,25.1
2019-02-14T17:08:32.472Z,25.1
2019-02-14T17:11:38.506Z,25.1
2019-02-14T17:14:44.463Z,25.1
2019-02-14T17:17:50.324Z,25.1
2019-02-14T17:20:56.254Z,25
2019-02-14T17:24:02.267Z,25
2019-02-14T17:27:08.200Z,25
2019-02-14T17:30:14.249Z,25
2019-02-14T17:33:20.247Z,25
2019-02-14T17:36:26.245Z,25
2019-02-14T17:39:32.270Z,25
2019-02-14T17:42:38.216Z,25
2019-02-14T17:45:44.136Z,25
2019-02-14T17:48:50.030Z,24.9
2019-02-14T17:51:56.119Z,24.9
2019-02-14T17:55:02.120Z,24.9
2019-02-14T17:58:08.078Z,24.9
2019-02-14T18:01:13.971Z,24.9
2019-02-14T18:04:19.918Z,24.8
2019-02-14T18:07:25.889Z,24.8
2019-02-14T18:10:31.967Z,24.7
2019-02-14T18:13:37.968Z,24.8
2019-02-14T18:16:43.993Z,24.7
2019-02-14T18:19:49.934Z,24.7
2019-02-14T18:22:55.870Z,24.7
2019-02-14T18:26:01.854Z,24.7
2019-02-14T18:29:07.828Z,24.6
2019-02-14T18:32:13.869Z,24.6
2019-02-14T18:35:19.728Z,24.6
2019-02-14T18:38:25.747Z,24.6
2019-02-14T18:41:33.418Z,24.5
2019-02-14T18:44:39.368Z,24.5
2019-02-14T18:47:45.451Z,24.4
2019-02-14T18:50:51.429Z,24.4
2019-02-14T18:53:57.351Z,24.5
2019-02-14T18:57:03.360Z,24.4
2019-02-14T19:00:09.249Z,24.4
2019-02-14T19:03:15.256Z,24.4
2019-02-14T19:06:21.268Z,24.4
2019-02-14T19:09:27.111Z,24.4
2019-02-14T19:12:33.048Z,24.4
2019-02-14T19:15:39.065Z,24.3
2019-02-14T19:18:45.086Z,24.3
2019-02-14T19:21:51.073Z,24.3
2019-02-14T19:24:56.998Z,24.3
2019-02-14T19:28:02.995Z,24.3
2019-02-14T19:31:08.863Z,24.3
2019-02-14T19:34:14.975Z,24.3
2019-02-14T19:37:20.988Z,24.2
2019-02-14T19:40:27.004Z,24.2
2019-02-14T19:43:33.143Z,24.2
2019-02-14T19:46:39.213Z,24.2
2019-02-14T19:49:45.183Z,24.1
2019-02-14T19:52:51.239Z,24.1
2019-02-14T19:55:57.156Z,24
2019-02-14T19:59:03.151Z,24
2019-02-14T20:02:09.141Z,23.9
2019-02-14T20:05:15.083Z,23.9
2019-02-14T20:08:21.197Z,23.8
2019-02-14T20:11:36.069Z,23.7
2019-02-14T20:14:43.204Z,23.7
2019-02-14T20:17:49.159Z,23.6
2019-02-14T20:20:55.118Z,23.6
2019-02-14T20:24:01.077Z,23.5
2019-02-14T20:27:07.035Z,23.5
2019-02-14T20:30:13.074Z,23.5
2019-02-14T20:33:19.016Z,23.4
2019-02-14T20:36:25.039Z,23.4
2019-02-14T20:39:30.924Z,23.4
2019-02-14T20:42:36.960Z,23.3
2019-02-14T20:45:42.847Z,23.3
2019-02-14T20:48:48.851Z,23.2
2019-02-14T20:51:54.763Z,23.2
2019-02-14T20:55:00.728Z,23.2
2019-02-14T20:58:06.690Z,23.1
2019-02-14T21:01:12.603Z,23.1
2019-02-14T21:04:18.602Z,23
2019-02-14T21:07:26.723Z,23
2019-02-14T21:10:32.689Z,23
2019-02-14T21:13:38.635Z,23
2019-02-14T21:16:44.598Z,23
2019-02-14T21:19:50.455Z,22.9
2019-02-14T21:22:56.456Z,22.9
2019-02-14T21:26:02.435Z,22.9
2019-02-14T21:29:08.462Z,22.8
2019-02-14T21:32:14.400Z,22.8
2019-02-14T21:35:20.659Z,22.8
2019-02-14T21:38:26.813Z,22.8
2019-02-14T21:41:32.785Z,22.7
2019-02-14T21:44:38.934Z,22.7
2019-02-14T21:47:44.923Z,22.7
2019-02-14T21:50:51.140Z,22.7
2019-02-14T21:53:57.355Z,22.7
2019-02-14T21:57:03.434Z,22.6
2019-02-14T22:00:09.547Z,22.6
2019-02-14T22:03:15.571Z,22.6
2019-02-14T22:06:21.722Z,22.6
2019-02-14T22:09:27.779Z,22.6
2019-02-14T22:12:41.163Z,22.5
2019-02-14T22:15:49.553Z,22.5
2019-02-14T22:18:55.704Z,22.5
2019-02-14T22:22:01.642Z,22.5
2019-02-14T22:25:07.488Z,22.5
2019-02-14T22:28:13.646Z,22.5
2019-02-14T22:31:19.695Z,22.4
2019-02-14T22:34:25.673Z,22.4
2019-02-14T22:37:31.644Z,22.4
2019-02-14T22:40:37.670Z,22.4
2019-02-14T22:43:43.648Z,22.4
2019-02-14T22:46:49.586Z,22.3
2019-02-14T22:49:55.546Z,22.3
2019-02-14T22:53:01.541Z,22.3
2019-02-14T22:56:07.451Z,22.3
2019-02-14T22:59:13.467Z,22.3
2019-02-14T23:02:19.375Z,22.3
2019-02-14T23:05:25.350Z,22.2
2019-02-14T23:08:31.270Z,22.2
2019-02-14T23:11:37.224Z,22.2
2019-02-14T23:14:43.161Z,22.2
2019-02-14T23:17:49.134Z,22.2
2019-02-14T23:20:55.088Z,22.2
2019-02-14T23:24:00.938Z,22.2
2019-02-14T23:27:06.866Z,22.2
2019-02-14T23:30:12.759Z,22.1
2019-02-14T23:33:18.732Z,22.1
2019-02-14T23:36:24.690Z,22.1
2019-02-14T23:39:30.629Z,22.1
2019-02-14T23:42:36.530Z,22.1
2019-02-14T23:45:42.550Z,22.1
2019-02-14T23:48:48.522Z,22.1
2019-02-14T23:51:54.461Z,22.1
2019-02-14T23:55:03.018Z,22
2019-02-14T23:58:08.926Z,22
